createdAt,value
2023-01-19T00:00:22.182Z,99864.59
2023-01-19T00:03:23.657Z,99877.63
2023-01-19T00:06:26.189Z,99868.31
2023-01-19T00:09:32.613Z,99876.75
2023-01-19T00:12:34.033Z,99870.16
2023-01-19T00:15:38.735Z,99881.34
2023-01-19T00:18:41.304Z,99876.16
2023-01-19T00:21:43.838Z,99886.28
2023-01-19T00:24:45.291Z,99879.81
2023-01-19T00:27:49.840Z,99888.28
2023-01-19T00:30:51.850Z,99890.72
2023-01-19T00:33:54.416Z,99896.28
2023-01-19T00:36:57.002Z,99897.91
2023-01-19T00:39:59.137Z,99900.81
2023-01-19T00:43:02.155Z,99899.34
2023-01-19T00:46:04.411Z,99892.47
2023-01-19T00:49:07.129Z,99898.50
2023-01-19T00:52:08.599Z,99901.84
2023-01-19T00:55:12.461Z,99903.88
2023-01-19T00:58:15.143Z,99903.19
2023-01-19T01:01:17.455Z,99910.84
2023-01-19T01:04:20.087Z,99909.78
2023-01-19T01:07:22.110Z,99920.88
2023-01-19T01:10:26.833Z,99919.78
2023-01-19T01:13:29.852Z,99921.28
2023-01-19T01:16:32.156Z,99918.91
2023-01-19T01:19:34.906Z,99922.94
2023-01-19T01:22:38.339Z,99925.44
2023-01-19T01:25:41.305Z,99920.25
2023-01-19T01:28:44.044Z,99928.13
2023-01-19T01:31:46.207Z,99931.28
2023-01-19T01:34:48.800Z,99925.00
2023-01-19T01:37:50.161Z,99934.31
2023-01-19T01:40:52.745Z,99934.09
2023-01-19T01:43:57.677Z,99926.22
2023-01-19T01:47:12.124Z,99940.28
2023-01-19T01:50:16.615Z,99931.78
2023-01-19T01:56:44.159Z,99933.06
2023-01-19T01:59:49.308Z,99930.75
2023-01-19T02:02:52.537Z,99932.00
2023-01-19T02:05:56.685Z,99933.66
2023-01-19T02:09:22.862Z,99925.59
2023-01-19T02:12:42.792Z,99927.06
2023-01-19T02:15:44.116Z,99924.75
2023-01-19T02:18:47.411Z,99925.59
2023-01-19T02:21:55.628Z,99926.41
2023-01-19T02:24:58.102Z,99926.09
2023-01-19T02:28:01.474Z,99921.38
2023-01-19T02:31:02.952Z,99923.94
2023-01-19T02:34:07.065Z,99920.47
2023-01-19T02:37:11.711Z,99922.94
2023-01-19T02:40:20.237Z,99917.38
2023-01-19T02:43:24.924Z,99916.94
2023-01-19T02:46:26.307Z,99925.06
2023-01-19T02:49:29.373Z,99930.19
2023-01-19T02:52:32.036Z,99930.19
2023-01-19T02:55:34.086Z,99922.75
2023-01-19T02:58:43.924Z,99933.50
2023-01-19T03:02:04.269Z,99932.44
2023-01-19T03:05:26.830Z,99938.63
2023-01-19T03:08:40.944Z,99940.03
2023-01-19T03:11:51.453Z,99936.06
2023-01-19T03:14:58.846Z,99924.50
2023-01-19T03:18:01.780Z,99929.41
2023-01-19T03:21:08.018Z,99933.97
2023-01-19T03:24:11.960Z,99926.72
2023-01-19T03:27:18.878Z,99928.16
2023-01-19T03:33:50.831Z,99931.22
2023-01-19T03:36:54.525Z,99929.53
2023-01-19T03:39:57.308Z,99935.78
2023-01-19T03:43:02.259Z,99923.09
2023-01-19T03:46:05.044Z,99929.88
2023-01-19T03:49:08.920Z,99927.63
2023-01-19T03:52:11.725Z,99930.31
2023-01-19T03:55:14.438Z,99932.16
2023-01-19T03:58:17.771Z,99922.66
2023-01-19T04:01:21.915Z,99943.50
2023-01-19T04:04:25.949Z,99938.47
2023-01-19T04:07:27.760Z,99940.72
2023-01-19T04:10:29.029Z,99935.53
2023-01-19T04:13:31.014Z,99931.66
2023-01-19T04:16:33.588Z,99936.75
2023-01-19T04:19:34.840Z,99939.91
2023-01-19T04:22:38.064Z,99935.38
2023-01-19T04:25:39.631Z,99930.75
2023-01-19T04:32:04.187Z,99935.44
2023-01-19T04:35:06.308Z,99930.91
2023-01-19T04:38:08.838Z,99940.09
2023-01-19T04:41:10.146Z,99927.16
2023-01-19T04:44:13.352Z,99935.09
2023-01-19T04:47:15.950Z,99934.84
2023-01-19T04:50:17.445Z,99939.06
2023-01-19T04:53:20.006Z,99934.50
2023-01-19T04:56:21.358Z,99931.63
2023-01-19T04:59:24.663Z,99941.31
2023-01-19T05:02:27.804Z,99935.94
2023-01-19T05:05:29.396Z,99947.25
2023-01-19T05:08:31.944Z,99951.75
2023-01-19T05:11:33.328Z,99948.03
2023-01-19T05:14:35.382Z,99949.69
2023-01-19T05:17:36.657Z,99960.63
2023-01-19T05:20:38.805Z,99959.03
2023-01-19T05:23:41.659Z,99961.19
2023-01-19T05:26:44.309Z,99965.84
2023-01-19T05:29:46.276Z,99960.69
2023-01-19T05:32:47.626Z,99963.84
2023-01-19T05:35:50.492Z,99962.59
2023-01-19T05:38:51.783Z,99968.38
2023-01-19T05:41:54.589Z,99969.63
2023-01-19T05:44:57.767Z,99971.56
2023-01-19T05:47:59.077Z,99987.69
2023-01-19T05:51:01.188Z,99988.50
2023-01-19T05:54:03.805Z,99988.31
2023-01-19T05:57:05.161Z,99988.16
2023-01-19T06:00:08.932Z,99987.53
2023-01-19T06:03:11.703Z,99993.94
2023-01-19T06:06:14.256Z,99986.50
2023-01-19T06:09:16.544Z,99990.44
2023-01-19T06:12:18.818Z,99986.47
2023-01-19T06:15:22.064Z,99994.47
2023-01-19T06:18:23.404Z,99996.25
2023-01-19T06:21:24.788Z,99995.81
2023-01-19T06:24:29.814Z,99995.38
2023-01-19T06:27:32.642Z,100001.31
2023-01-19T06:30:34.663Z,99984.34
2023-01-19T06:36:57.531Z,100003.16
2023-01-19T06:43:21.219Z,100011.88
2023-01-19T06:46:23.207Z,100020.97
2023-01-19T06:49:25.872Z,100009.16
2023-01-19T06:52:27.765Z,100016.78
2023-01-19T06:55:30.347Z,100012.31
2023-01-19T06:58:33.055Z,100018.00
2023-01-19T07:01:36.633Z,100020.03
2023-01-19T07:04:37.962Z,100018.38
2023-01-19T07:07:41.036Z,100018.78
2023-01-19T07:11:26.263Z,100017.16
2023-01-19T07:14:05.216Z,100028.94
2023-01-19T07:17:09.180Z,100035.13
2023-01-19T07:20:13.562Z,100028.94
2023-01-19T07:23:16.386Z,100035.59
2023-01-19T07:26:20.442Z,100035.66
2023-01-19T07:29:42.444Z,100039.56
2023-01-19T07:32:45.706Z,100039.31
2023-01-19T07:35:47.491Z,100036.19
2023-01-19T07:42:09.765Z,100034.78
2023-01-19T07:45:11.591Z,100051.16
2023-01-19T07:51:34.547Z,100052.50
2023-01-19T07:54:35.840Z,100059.41
2023-01-19T07:57:37.406Z,100063.53
2023-01-19T08:00:38.894Z,100063.56
2023-01-19T08:03:42.920Z,100067.69
2023-01-19T08:06:47.190Z,100073.56
2023-01-19T08:09:48.742Z,100072.47
2023-01-19T08:12:51.378Z,100066.19
2023-01-19T08:15:53.792Z,100063.22
2023-01-19T08:18:57.001Z,100061.00
2023-01-19T08:21:59.359Z,100067.13
2023-01-19T08:25:01.903Z,100072.25
2023-01-19T08:31:27.887Z,100077.72
2023-01-19T08:34:30.792Z,100075.22
2023-01-19T08:37:34.261Z,100065.13
2023-01-19T08:40:38.301Z,100077.78
2023-01-19T08:43:40.874Z,100078.94
2023-01-19T08:46:42.416Z,100085.34
2023-01-19T08:49:44.726Z,100081.47
2023-01-19T08:52:46.002Z,100078.34
2023-01-19T08:55:48.580Z,100085.63
2023-01-19T08:59:03.483Z,100087.44
2023-01-19T09:02:10.166Z,100086.13
2023-01-19T09:05:14.275Z,100084.69
2023-01-19T09:08:16.278Z,100090.34
2023-01-19T09:11:17.949Z,100089.59
2023-01-19T09:14:20.534Z,100089.59
2023-01-19T09:17:22.110Z,100096.28
2023-01-19T09:20:25.438Z,100095.50
2023-01-19T09:23:27.198Z,100098.63
2023-01-19T09:26:31.645Z,100099.09
2023-01-19T09:29:35.437Z,100097.66
2023-01-19T09:32:38.089Z,100095.56
2023-01-19T09:35:42.276Z,100094.31
2023-01-19T09:38:43.618Z,100085.59
2023-01-19T09:41:50.777Z,100095.31
2023-01-19T09:44:54.263Z,100098.22
2023-01-19T09:47:58.263Z,100090.31
2023-01-19T09:51:05.212Z,100098.16
2023-01-19T09:54:12.842Z,100091.50
2023-01-19T09:57:15.804Z,100089.97
2023-01-19T10:00:18.183Z,100090.72
2023-01-19T10:03:20.287Z,100087.88
2023-01-19T10:06:22.829Z,100084.03
2023-01-19T10:09:31.233Z,100088.44
2023-01-19T10:12:43.830Z,100086.28
2023-01-19T10:15:53.447Z,100088.31
2023-01-19T10:19:01.502Z,100093.66
2023-01-19T10:22:18.256Z,100090.50
2023-01-19T10:25:24.245Z,100084.63
2023-01-19T10:28:26.899Z,100083.00
2023-01-19T10:31:29.581Z,100080.59
2023-01-19T10:34:32.198Z,100082.69
2023-01-19T10:37:38.753Z,100076.03
2023-01-19T10:40:49.449Z,100082.31
2023-01-19T10:44:01.264Z,100081.38
2023-01-19T10:47:05.849Z,100074.28
2023-01-19T10:50:24.729Z,100079.25
2023-01-19T10:53:28.611Z,100085.28
2023-01-19T10:56:34.140Z,100075.34
2023-01-19T10:59:39.680Z,100069.69
2023-01-19T11:02:52.265Z,100062.00
2023-01-19T11:05:54.555Z,100059.16
2023-01-19T11:09:17.336Z,100049.44
2023-01-19T11:12:21.834Z,100058.81
2023-01-19T11:15:26.613Z,100053.59
2023-01-19T11:18:31.429Z,100051.25
2023-01-19T11:21:33.178Z,100049.88
2023-01-19T11:24:41.795Z,100046.28
2023-01-19T11:27:50.033Z,100049.84
2023-01-19T11:30:56.044Z,100050.69
2023-01-19T11:34:00.279Z,100043.31
2023-01-19T11:37:04.290Z,100045.63
2023-01-19T11:40:14.342Z,100048.28
2023-01-19T11:43:18.523Z,100037.94
2023-01-19T11:46:22.661Z,100035.06
2023-01-19T11:49:33.964Z,100027.00
2023-01-19T11:52:43.192Z,100032.22
2023-01-19T11:55:53.549Z,100028.88
2023-01-19T11:58:55.629Z,100037.41
2023-01-19T12:02:01.853Z,100024.97
2023-01-19T12:05:09.250Z,100032.72
2023-01-19T12:08:16.870Z,100036.78
2023-01-19T12:11:24.592Z,100038.31
2023-01-19T12:14:32.732Z,100039.25
2023-01-19T12:17:37.701Z,100033.34
2023-01-19T12:20:44.905Z,100037.63
2023-01-19T12:24:00.547Z,100029.38
2023-01-19T12:27:14.806Z,100025.13
2023-01-19T12:30:20.757Z,100034.34
2023-01-19T12:33:36.349Z,100029.13
2023-01-19T12:36:38.480Z,100037.50
2023-01-19T12:39:49.053Z,100046.69
2023-01-19T12:42:58.230Z,100039.47
2023-01-19T12:46:00.100Z,100041.59
2023-01-19T12:49:04.719Z,100037.94
2023-01-19T12:52:25.120Z,100041.69
2023-01-19T12:55:31.515Z,100034.59
2023-01-19T12:58:33.807Z,100043.53
2023-01-19T13:01:35.254Z,100050.81
2023-01-19T13:04:36.648Z,100052.53
2023-01-19T13:08:13.040Z,100051.56
2023-01-19T13:11:20.460Z,100047.97
2023-01-19T13:14:35.615Z,100051.03
2023-01-19T13:17:50.442Z,100058.84
2023-01-19T13:20:56.650Z,100057.06
2023-01-19T13:24:01.334Z,100061.31
2023-01-19T13:27:04.235Z,100077.53
2023-01-19T13:30:13.093Z,100075.63
2023-01-19T13:33:20.682Z,100074.44
2023-01-19T13:36:26.706Z,100071.31
2023-01-19T13:39:31.161Z,100066.69
2023-01-19T13:42:35.713Z,100080.41
2023-01-19T13:45:39.288Z,100078.44
2023-01-19T13:48:54.955Z,100079.50
2023-01-19T13:52:07.100Z,100087.56
2023-01-19T13:55:15.243Z,100085.53
2023-01-19T13:58:23.252Z,100094.66
2023-01-19T14:01:28.995Z,100104.88
2023-01-19T14:04:33.735Z,100093.72
2023-01-19T14:07:35.345Z,100100.91
2023-01-19T14:10:39.964Z,100096.38
2023-01-19T14:13:44.072Z,100101.19
2023-01-19T14:16:46.090Z,100109.25
2023-01-19T14:19:50.490Z,100108.13
2023-01-19T14:22:53.290Z,100110.53
2023-01-19T14:25:55.938Z,100113.03
2023-01-19T14:28:57.724Z,100113.63
2023-01-19T14:32:14.548Z,100103.78
2023-01-19T14:35:24.569Z,100109.09
2023-01-19T14:38:30.222Z,100112.56
2023-01-19T14:41:40.041Z,100122.91
2023-01-19T14:44:47.642Z,100125.06
2023-01-19T14:47:57.539Z,100126.84
2023-01-19T14:51:04.324Z,100129.66
2023-01-19T14:54:12.915Z,100138.06
2023-01-19T14:57:14.846Z,100137.44
2023-01-19T15:00:19.659Z,100134.31
2023-01-19T15:03:26.843Z,100129.28
2023-01-19T15:06:38.308Z,100130.06
2023-01-19T15:09:42.370Z,100137.31
2023-01-19T15:12:45.994Z,100138.25
2023-01-19T15:15:51.358Z,100145.16
2023-01-19T15:18:53.529Z,100149.34
2023-01-19T15:21:54.922Z,100146.75
2023-01-19T15:25:00.440Z,100158.72
2023-01-19T15:28:04.958Z,100158.78
2023-01-19T15:31:06.402Z,100166.91
2023-01-19T15:34:12.043Z,100154.94
2023-01-19T15:37:14.958Z,100153.53
2023-01-19T15:40:18.200Z,100157.91
2023-01-19T15:43:21.929Z,100157.91
2023-01-19T15:46:26.611Z,100150.25
2023-01-19T15:49:30.160Z,100153.78
2023-01-19T15:52:33.136Z,100160.53
2023-01-19T15:55:35.294Z,100157.06
2023-01-19T15:58:38.195Z,100165.59
2023-01-19T16:01:40.165Z,100166.50
2023-01-19T16:04:43.819Z,100159.84
2023-01-19T16:07:47.065Z,100161.97
2023-01-19T16:10:51.240Z,100160.03
2023-01-19T16:13:52.874Z,100160.09
2023-01-19T16:16:54.674Z,100162.47
2023-01-19T16:20:00.293Z,100161.19
2023-01-19T16:23:14.163Z,100165.91
2023-01-19T16:29:47.787Z,100169.91
2023-01-19T16:32:50.696Z,100169.31
2023-01-19T16:39:17.962Z,100173.88
2023-01-19T16:42:19.773Z,100177.00
2023-01-19T16:45:22.781Z,100175.34
2023-01-19T16:48:24.929Z,100186.16
2023-01-19T16:51:28.898Z,100187.81
2023-01-19T16:54:31.535Z,100186.50
2023-01-19T16:57:34.180Z,100189.81
2023-01-19T17:00:36.439Z,100192.38
2023-01-19T17:03:39.266Z,100189.69
2023-01-19T17:06:41.575Z,100192.38
2023-01-19T17:09:42.996Z,100190.50
2023-01-19T17:12:45.554Z,100194.06
2023-01-19T17:15:47.225Z,100203.81
2023-01-19T17:18:50.423Z,100200.91
2023-01-19T17:21:55.511Z,100199.84
2023-01-19T17:24:56.924Z,100204.44
2023-01-19T17:28:01.585Z,100205.09
2023-01-19T17:31:07.793Z,100200.94
2023-01-19T17:34:10.896Z,100209.84
2023-01-19T17:37:13.073Z,100201.56
2023-01-19T17:40:16.367Z,100205.53
2023-01-19T17:43:17.843Z,100200.13
2023-01-19T17:46:22.249Z,100203.22
2023-01-19T17:49:25.886Z,100198.63
2023-01-19T17:52:29.195Z,100202.72
2023-01-19T18:02:13.728Z,100212.94
2023-01-19T18:05:16.787Z,100216.28
2023-01-19T18:08:19.028Z,100216.09
2023-01-19T18:11:21.492Z,100216.03
2023-01-19T18:14:23.339Z,100214.91
2023-01-19T18:17:25.962Z,100222.66
2023-01-19T18:20:27.291Z,100228.06
2023-01-19T18:23:30.494Z,100224.53
2023-01-19T18:26:34.719Z,100225.75
2023-01-19T18:29:36.046Z,100234.09
2023-01-19T18:32:38.568Z,100227.84
2023-01-19T18:35:39.856Z,100237.91
2023-01-19T18:38:43.315Z,100244.25
2023-01-19T18:41:44.685Z,100238.63
2023-01-19T18:44:46.034Z,100238.22
2023-01-19T18:47:47.728Z,100246.97
2023-01-19T18:50:51.034Z,100251.09
2023-01-19T18:53:54.319Z,100255.06
2023-01-19T18:56:56.079Z,100251.53
2023-01-19T18:59:58.596Z,100260.88
2023-01-19T19:03:00.605Z,100268.22
2023-01-19T19:06:03.129Z,100256.19
2023-01-19T19:09:05.585Z,100266.97
2023-01-19T19:12:08.927Z,100268.81
2023-01-19T19:15:11.528Z,100274.47
2023-01-19T19:18:12.968Z,100275.47
2023-01-19T19:21:15.450Z,100280.88
2023-01-19T19:24:17.645Z,100277.34
2023-01-19T19:27:19.024Z,100280.31
2023-01-19T19:30:21.075Z,100284.47
2023-01-19T19:33:23.579Z,100286.50
2023-01-19T19:36:26.863Z,100290.88
2023-01-19T19:39:29.427Z,100299.22
2023-01-19T19:42:30.709Z,100302.13
2023-01-19T19:45:34.525Z,100302.72
2023-01-19T19:48:39.210Z,100307.56
2023-01-19T19:51:41.464Z,100310.16
2023-01-19T19:54:44.406Z,100312.31
2023-01-19T19:57:48.012Z,100321.88
2023-01-19T20:00:49.788Z,100321.69
2023-01-19T20:03:52.396Z,100329.44
2023-01-19T20:06:53.725Z,100332.94
2023-01-19T20:09:55.987Z,100325.63
2023-01-19T20:12:57.463Z,100331.88
2023-01-19T20:16:01.417Z,100331.66
2023-01-19T20:19:03.557Z,100327.03
2023-01-19T20:22:04.838Z,100332.44
2023-01-19T20:25:07.849Z,100339.16
2023-01-19T20:28:10.610Z,100339.16
2023-01-19T20:31:15.450Z,100337.84
2023-01-19T20:34:20.611Z,100350.00
2023-01-19T20:37:24.065Z,100350.81
2023-01-19T20:40:26.747Z,100354.97
2023-01-19T20:43:29.627Z,100362.66
2023-01-19T20:46:31.008Z,100365.19
2023-01-19T20:49:32.384Z,100368.53
2023-01-19T20:52:34.772Z,100368.91
2023-01-19T20:55:39.280Z,100372.88
2023-01-19T20:58:42.129Z,100373.94
2023-01-19T21:01:45.310Z,100379.38
2023-01-19T21:04:48.202Z,100387.47
2023-01-19T21:07:49.811Z,100387.25
2023-01-19T21:10:56.678Z,100390.41
2023-01-19T21:13:58.067Z,100397.22
2023-01-19T21:17:01.644Z,100404.97
2023-01-19T21:20:05.826Z,100411.22
2023-01-19T21:23:07.635Z,100417.88
2023-01-19T21:26:12.625Z,100412.28
2023-01-19T21:29:15.270Z,100412.88
2023-01-19T21:32:17.819Z,100415.34
2023-01-19T21:35:20.333Z,100416.19
2023-01-19T21:38:22.797Z,100419.28
2023-01-19T21:41:26.033Z,100423.91
2023-01-19T21:44:27.356Z,100426.84
2023-01-19T21:54:19.827Z,100447.88
2023-01-19T21:57:23.246Z,100449.13
2023-01-19T22:00:26.157Z,100462.91
2023-01-19T22:03:28.656Z,100455.78
2023-01-19T22:06:31.177Z,100464.53
2023-01-19T22:09:34.308Z,100458.50
2023-01-19T22:12:39.294Z,100469.50
2023-01-19T22:15:42.133Z,100477.63
2023-01-19T22:18:45.483Z,100471.59
2023-01-19T22:21:48.069Z,100484.75
2023-01-19T22:24:49.664Z,100483.91
2023-01-19T22:27:52.853Z,100490.78
2023-01-19T22:30:54.289Z,100497.03
2023-01-19T22:33:57.860Z,100504.53
2023-01-19T22:37:00.718Z,100505.13
2023-01-19T22:40:02.146Z,100515.16
2023-01-19T22:43:05.412Z,100512.03
2023-01-19T22:46:08.712Z,100516.41
2023-01-19T22:49:15.556Z,100516.81
2023-01-19T22:52:17.017Z,100517.44
2023-01-19T22:55:20.505Z,100527.22
2023-01-19T22:58:23.924Z,100526.63
2023-01-19T23:01:27.429Z,100521.63
2023-01-19T23:04:30.096Z,100527.22
2023-01-19T23:07:32.709Z,100521.63
2023-01-19T23:10:38.540Z,100519.94
2023-01-19T23:13:40.842Z,100523.50
2023-01-19T23:16:43.477Z,100535.56
2023-01-19T23:19:45.940Z,100538.06
2023-01-19T23:22:48.233Z,100529.75
2023-01-19T23:29:14.314Z,100546.22
2023-01-19T23:32:16.941Z,100557.88
2023-01-19T23:38:41.485Z,100557.25
2023-01-19T23:41:43.303Z,100561.41
2023-01-19T23:44:46.684Z,100565.16
2023-01-19T23:47:48.138Z,100549.13
2023-01-19T23:50:50.825Z,100559.97
2023-01-19T23:53:52.965Z,100558.91
2023-01-19T23:56:56.184Z,100562.03
2023-01-19T23:59:58.917Z,100568.28
